createdAt,value
2022-11-12T00:03:55.022Z,84.76
2022-11-12T00:09:13.564Z,84.70
2022-11-12T00:14:35.998Z,84.69
2022-11-12T00:19:55.491Z,84.69
2022-11-12T00:25:14.158Z,84.70
2022-11-12T00:30:33.557Z,84.68
2022-11-12T00:35:51.168Z,84.60
2022-11-12T00:41:08.884Z,84.60
2022-11-12T00:46:26.599Z,84.60
2022-11-12T00:51:44.859Z,84.59
2022-11-12T00:57:02.594Z,84.60
2022-11-12T01:02:22.485Z,84.60
2022-11-12T01:07:39.529Z,84.59
2022-11-12T01:12:57.687Z,84.57
2022-11-12T01:18:15.462Z,84.56
2022-11-12T01:23:36.352Z,84.48
2022-11-12T01:28:54.557Z,84.47
2022-11-12T01:34:14.021Z,84.42
2022-11-12T01:39:32.324Z,84.35
2022-11-12T01:44:50.212Z,84.30
2022-11-12T01:50:19.590Z,84.29
2022-11-12T01:55:40.563Z,84.26
2022-11-12T02:00:58.216Z,84.26
2022-11-12T02:06:17.880Z,84.25
2022-11-12T02:11:35.648Z,84.22
2022-11-12T02:16:56.254Z,84.19
2022-11-12T02:22:13.451Z,84.10
2022-11-12T02:27:31.881Z,84.10
2022-11-12T02:32:50.651Z,84.10
2022-11-12T02:38:09.643Z,84.10
2022-11-12T02:43:27.118Z,84.10
2022-11-12T02:48:44.085Z,84.10
2022-11-12T02:54:02.035Z,84.10
2022-11-12T02:59:20.196Z,84.10
2022-11-12T03:04:37.793Z,84.10
2022-11-12T03:09:55.632Z,84.08
2022-11-12T03:15:14.594Z,84.09
2022-11-12T03:20:38.920Z,84.11
2022-11-12T03:25:56.691Z,84.15
2022-11-12T03:31:14.532Z,84.15
2022-11-12T03:36:31.595Z,84.10
2022-11-12T03:41:49.576Z,84.10
2022-11-12T03:47:06.966Z,84.06
2022-11-12T03:52:26.510Z,84.00
2022-11-12T03:57:43.632Z,83.90
2022-11-12T04:03:02.003Z,83.82
2022-11-12T04:08:38.141Z,83.81
2022-11-12T04:13:55.895Z,83.63
2022-11-12T04:19:33.578Z,83.53
2022-11-12T04:25:11.259Z,83.35
2022-11-12T04:30:28.812Z,83.19
2022-11-12T04:35:46.456Z,83.15
2022-11-12T04:41:22.348Z,83.14
2022-11-12T04:46:40.285Z,83.01
2022-11-12T04:52:08.273Z,83.01
2022-11-12T04:57:26.138Z,82.97
2022-11-12T05:02:43.806Z,82.81
2022-11-12T05:08:04.222Z,82.80
2022-11-12T05:13:21.827Z,82.75
2022-11-12T05:18:39.278Z,82.74
2022-11-12T05:23:56.441Z,82.64
2022-11-12T05:29:14.831Z,82.71
2022-11-12T05:34:32.776Z,82.71
2022-11-12T05:39:50.244Z,82.79
2022-11-12T05:45:10.945Z,82.75
2022-11-12T05:50:34.854Z,82.81
2022-11-12T05:56:04.463Z,82.79
2022-11-12T06:01:24.955Z,82.89
2022-11-12T06:06:43.916Z,82.90
2022-11-12T06:12:02.710Z,82.89
2022-11-12T06:17:21.293Z,82.83
2022-11-12T06:22:38.766Z,82.93
2022-11-12T06:27:56.997Z,83.04
2022-11-12T06:33:14.741Z,83.13
2022-11-12T06:38:33.217Z,83.29
2022-11-12T06:43:53.424Z,83.31
2022-11-12T06:49:10.953Z,83.16
2022-11-12T06:54:28.649Z,82.86
2022-11-12T06:59:46.556Z,82.82
2022-11-12T07:05:04.224Z,82.76
2022-11-12T07:10:22.898Z,82.89
2022-11-12T07:15:40.013Z,82.90
2022-11-12T07:21:03.471Z,82.96
2022-11-12T07:26:23.914Z,83.02
2022-11-12T07:31:41.610Z,83.10
2022-11-12T07:36:58.738Z,83.17
2022-11-12T07:42:16.809Z,83.18
2022-11-12T07:47:34.810Z,83.25
2022-11-12T07:52:52.536Z,83.22
2022-11-12T07:58:10.373Z,83.30
2022-11-12T08:03:28.469Z,83.39
2022-11-12T08:08:45.439Z,83.44
2022-11-12T08:14:05.327Z,83.50
2022-11-12T08:19:23.452Z,83.50
2022-11-12T08:24:41.752Z,83.46
2022-11-12T08:29:58.814Z,83.44
2022-11-12T08:35:16.623Z,83.40
2022-11-12T08:40:35.733Z,83.36
2022-11-12T08:45:53.138Z,83.30
2022-11-12T08:51:11.300Z,83.25
2022-11-12T08:56:28.509Z,83.20
2022-11-12T09:01:45.955Z,83.18
2022-11-12T09:07:03.376Z,83.19
2022-11-12T09:12:20.341Z,83.19
2022-11-12T09:17:38.491Z,83.01
2022-11-12T09:22:59.460Z,82.99
2022-11-12T09:28:19.332Z,83.01
2022-11-12T09:33:38.202Z,82.99
2022-11-12T09:38:55.180Z,83.01
2022-11-12T09:44:18.234Z,83.07
2022-11-12T09:49:44.831Z,82.95
2022-11-12T09:55:18.913Z,83.00
2022-11-12T10:00:41.131Z,83.01
2022-11-12T10:06:10.516Z,82.89
2022-11-12T10:12:28.765Z,82.81
2022-11-12T10:18:00.238Z,82.81
2022-11-12T10:23:28.302Z,82.87
2022-11-12T10:28:52.885Z,82.84
2022-11-12T10:34:25.978Z,82.68
2022-11-12T10:39:47.882Z,82.69
2022-11-12T10:45:23.976Z,82.63
2022-11-12T10:50:45.296Z,82.63
2022-11-12T10:56:06.773Z,82.69
2022-11-12T11:01:24.130Z,82.69
2022-11-12T11:06:42.394Z,82.57
2022-11-12T11:11:59.775Z,82.46
2022-11-12T11:17:22.068Z,82.35
2022-11-12T11:22:47.360Z,82.26
2022-11-12T11:28:23.540Z,82.26
2022-11-12T11:33:52.605Z,82.22
2022-11-12T11:39:22.527Z,82.18
2022-11-12T11:44:53.101Z,82.19
2022-11-12T11:50:26.556Z,81.84
2022-11-12T11:56:02.806Z,81.64
2022-11-12T12:01:30.838Z,81.56
2022-11-12T12:07:02.473Z,81.69
2022-11-12T12:12:44.492Z,81.54
2022-11-12T12:18:16.987Z,81.50
2022-11-12T12:23:43.069Z,81.39
2022-11-12T12:29:12.919Z,81.29
2022-11-12T12:34:36.999Z,81.18
2022-11-12T12:40:05.154Z,81.08
2022-11-12T12:45:41.983Z,81.00
2022-11-12T12:50:59.661Z,81.04
2022-11-12T12:56:50.692Z,81.01
2022-11-12T13:02:21.384Z,81.05
2022-11-12T13:07:49.534Z,81.08
2022-11-12T13:13:31.928Z,81.06
2022-11-12T13:19:08.766Z,80.94
2022-11-12T13:25:07.480Z,81.07
2022-11-12T13:30:59.716Z,81.05
2022-11-12T13:36:32.494Z,80.93
2022-11-12T13:42:16.907Z,80.91
2022-11-12T13:47:35.843Z,80.90
2022-11-12T13:52:54.819Z,80.93
2022-11-12T13:58:30.008Z,80.93
2022-11-12T14:03:52.083Z,80.90
2022-11-12T14:09:52.499Z,81.00
2022-11-12T14:15:38.391Z,81.06
2022-11-12T14:20:56.603Z,81.18
2022-11-12T14:26:33.637Z,81.28
2022-11-12T14:32:04.112Z,81.40
2022-11-12T14:37:43.475Z,81.42
2022-11-12T14:43:01.880Z,81.48
2022-11-12T14:48:20.331Z,81.51
2022-11-12T14:53:44.008Z,81.60
2022-11-12T14:59:02.704Z,81.64
2022-11-12T15:04:26.348Z,81.74
2022-11-12T15:09:44.526Z,81.78
2022-11-12T15:15:22.986Z,81.74
2022-11-12T15:20:40.997Z,81.77
2022-11-12T15:26:04.887Z,81.80
2022-11-12T15:31:25.381Z,81.90
2022-11-12T15:36:46.422Z,81.90
2022-11-12T15:42:16.058Z,82.00
2022-11-12T15:47:34.017Z,82.04
2022-11-12T15:52:52.503Z,82.11
2022-11-12T15:58:18.859Z,82.13
2022-11-12T16:03:37.277Z,82.10
2022-11-12T16:08:55.501Z,82.17
2022-11-12T16:14:19.784Z,82.19
2022-11-12T16:19:39.597Z,82.26
2022-11-12T16:24:57.091Z,82.32
2022-11-12T16:30:22.409Z,82.39
2022-11-12T16:35:41.435Z,82.39
2022-11-12T16:40:59.133Z,82.39
2022-11-12T16:46:30.514Z,82.40
2022-11-12T16:51:48.573Z,82.36
2022-11-12T16:57:06.556Z,82.40
2022-11-12T17:02:24.295Z,82.50
2022-11-12T17:07:41.999Z,82.53
2022-11-12T17:12:59.591Z,82.57
2022-11-12T17:18:17.715Z,82.56
2022-11-12T17:23:35.160Z,82.56
2022-11-12T17:28:59.338Z,82.58
2022-11-12T17:34:19.115Z,82.61
2022-11-12T17:39:37.484Z,82.71
2022-11-12T17:44:55.161Z,82.79
2022-11-12T17:50:13.792Z,82.86
2022-11-12T17:55:31.451Z,82.92
2022-11-12T18:00:49.273Z,82.96
2022-11-12T18:06:08.015Z,83.00
2022-11-12T18:11:28.102Z,83.06
2022-11-12T18:16:46.541Z,83.13
2022-11-12T18:22:04.750Z,83.26
2022-11-12T18:27:22.257Z,83.34
2022-11-12T18:32:41.388Z,83.39
2022-11-12T18:37:59.044Z,83.40
2022-11-12T18:43:17.120Z,83.41
2022-11-12T18:48:37.371Z,83.44
2022-11-12T18:53:55.310Z,83.53
2022-11-12T18:59:13.672Z,83.54
2022-11-12T19:04:31.103Z,83.57
2022-11-12T19:09:47.899Z,83.60
2022-11-12T19:15:06.355Z,83.65
2022-11-12T19:20:23.462Z,83.72
2022-11-12T19:25:41.339Z,83.70
2022-11-12T19:30:59.529Z,83.71
2022-11-12T19:36:22.305Z,83.78
2022-11-12T19:41:39.525Z,83.90
2022-11-12T19:46:57.362Z,83.97
2022-11-12T19:52:15.612Z,84.00
2022-11-12T19:57:33.049Z,84.05
2022-11-12T20:02:50.103Z,84.11
2022-11-12T20:08:08.386Z,84.10
2022-11-12T20:13:26.199Z,84.11
2022-11-12T20:18:47.326Z,84.19
2022-11-12T20:24:11.038Z,84.26
2022-11-12T20:29:29.092Z,84.34
2022-11-12T20:34:49.875Z,84.46
2022-11-12T20:40:10.239Z,84.61
2022-11-12T20:45:28.091Z,84.68
2022-11-12T20:51:02.601Z,84.74
2022-11-12T20:56:25.526Z,84.86
2022-11-12T21:01:43.430Z,85.00
2022-11-12T21:07:05.006Z,85.17
2022-11-12T21:12:22.776Z,85.34
2022-11-12T21:17:39.733Z,85.54
2022-11-12T21:22:58.312Z,85.68
2022-11-12T21:28:16.106Z,85.85
2022-11-12T21:33:33.811Z,85.96
2022-11-12T21:38:51.845Z,86.08
2022-11-12T21:44:09.558Z,86.11
2022-11-12T21:49:26.982Z,86.24
2022-11-12T21:54:44.508Z,86.39
2022-11-12T22:00:26.519Z,86.54
2022-11-12T22:05:41.858Z,86.68
2022-11-12T22:11:06.304Z,86.75
2022-11-12T22:16:25.628Z,86.95
2022-11-12T22:21:44.236Z,87.07
2022-11-12T22:27:05.473Z,87.14
2022-11-12T22:32:25.203Z,87.31
2022-11-12T22:37:43.061Z,87.37
2022-11-12T22:43:00.743Z,87.38
2022-11-12T22:48:17.908Z,87.40
2022-11-12T22:53:35.314Z,87.49
2022-11-12T22:58:53.297Z,87.56
2022-11-12T23:04:11.722Z,87.63
2022-11-12T23:09:29.556Z,87.65
2022-11-12T23:14:47.127Z,87.69
2022-11-12T23:20:04.668Z,87.74
2022-11-12T23:25:22.350Z,87.76
2022-11-12T23:30:39.912Z,87.85
2022-11-12T23:36:04.505Z,87.96
2022-11-12T23:41:26.424Z,88.02
2022-11-12T23:46:44.355Z,88.11
2022-11-12T23:52:02.567Z,88.18
2022-11-12T23:57:20.572Z,88.21
